createdAt,value
2018-12-05T00:02:05.780Z,102317.84
2018-12-05T00:04:33.294Z,102320.50
2018-12-05T00:07:00.775Z,102315.11
2018-12-05T00:09:28.183Z,102313.76
2018-12-05T00:11:56.087Z,102321.39
2018-12-05T00:14:23.635Z,102322.30
2018-12-05T00:16:51.458Z,102322.30
2018-12-05T00:19:19.438Z,102327.69
2018-12-05T00:21:47.562Z,102326.34
2018-12-05T00:24:15.478Z,102321.88
2018-12-05T00:26:42.937Z,102332.19
2018-12-05T00:29:10.332Z,102324.14
2018-12-05T00:31:37.764Z,102329.08
2018-12-05T00:34:05.182Z,102331.81
2018-12-05T00:36:32.648Z,102327.77
2018-12-05T00:39:00.222Z,102336.75
2018-12-05T00:41:27.649Z,102337.66
2018-12-05T00:43:55.173Z,102339.98
2018-12-05T00:46:22.603Z,102350.69
2018-12-05T00:48:50.226Z,102344.88
2018-12-05T00:51:17.699Z,102345.81
2018-12-05T00:53:45.132Z,102346.27
2018-12-05T00:56:12.585Z,102348.52
2018-12-05T00:58:40.005Z,102346.72
2018-12-05T01:01:07.407Z,102347.17
2018-12-05T01:03:34.841Z,102354.36
2018-12-05T01:06:02.267Z,102357.47
2018-12-05T01:08:29.798Z,102356.56
2018-12-05T01:10:57.279Z,102365.06
2018-12-05T01:13:24.698Z,102370.88
2018-12-05T01:15:52.170Z,102371.77
2018-12-05T01:18:19.651Z,102371.32
2018-12-05T01:20:48.071Z,102370.83
2018-12-05T01:23:15.539Z,102374.47
2018-12-05T01:25:42.982Z,102373.98
2018-12-05T01:28:10.396Z,102370.38
2018-12-05T01:30:37.895Z,102382.06
2018-12-05T01:33:05.293Z,102379.37
2018-12-05T01:35:32.726Z,102385.21
2018-12-05T01:38:00.125Z,102379.89
2018-12-05T01:40:27.574Z,102391.09
2018-12-05T01:42:55.011Z,102388.84
2018-12-05T01:45:22.395Z,102385.73
2018-12-05T01:47:49.929Z,102387.09
2018-12-05T01:50:17.349Z,102388.88
2018-12-05T01:52:44.758Z,102381.73
2018-12-05T01:55:12.161Z,102388.02
2018-12-05T01:57:39.625Z,102392.06
2018-12-05T02:00:07.083Z,102397.49
2018-12-05T02:02:34.558Z,102386.70
2018-12-05T02:05:02.756Z,102390.30
2018-12-05T02:07:30.151Z,102391.65
2018-12-05T02:09:57.590Z,102392.55
2018-12-05T02:12:25.006Z,102393.03
2018-12-05T02:14:52.400Z,102394.83
2018-12-05T02:17:19.871Z,102393.48
2018-12-05T02:19:47.293Z,102400.64
2018-12-05T02:22:14.709Z,102395.21
2018-12-05T02:24:42.096Z,102389.37
2018-12-05T02:27:09.498Z,102387.53
2018-12-05T02:29:42.591Z,102388.40
2018-12-05T02:32:09.985Z,102389.30
2018-12-05T02:34:37.436Z,102391.95
2018-12-05T02:37:04.825Z,102393.72
2018-12-05T02:39:32.220Z,102387.42
2018-12-05T02:41:59.638Z,102386.97
2018-12-05T02:44:27.219Z,102394.16
2018-12-05T02:46:54.658Z,102385.63
2018-12-05T02:49:23.121Z,102390.57
2018-12-05T02:51:50.544Z,102387.02
2018-12-05T02:54:17.932Z,102388.81
2018-12-05T02:56:45.406Z,102381.17
2018-12-05T02:59:12.847Z,102380.27
2018-12-05T03:01:40.270Z,102386.56
2018-12-05T03:04:07.656Z,102387.05
2018-12-05T03:06:35.061Z,102390.20
2018-12-05T03:09:02.457Z,102385.28
2018-12-05T03:11:29.857Z,102382.59
2018-12-05T03:13:57.291Z,102383.94
2018-12-05T03:16:24.701Z,102379.45
2018-12-05T03:18:52.112Z,102381.73
2018-12-05T03:21:19.522Z,102377.23
2018-12-05T03:23:46.925Z,102377.23
2018-12-05T03:26:14.338Z,102379.52
2018-12-05T03:28:48.518Z,102375.51
2018-12-05T03:31:16.039Z,102379.07
2018-12-05T03:33:43.435Z,102376.38
2018-12-05T03:36:10.848Z,102387.16
2018-12-05T03:38:38.258Z,102382.25
2018-12-05T03:41:05.685Z,102390.34
2018-12-05T03:43:33.143Z,102384.05
2018-12-05T03:46:00.558Z,102394.38
2018-12-05T03:48:27.947Z,102398.88
2018-12-05T03:50:55.379Z,102392.59
2018-12-05T03:53:22.827Z,102397.94
2018-12-05T03:55:50.261Z,102398.84
2018-12-05T03:58:17.677Z,102397.45
2018-12-05T04:00:45.088Z,102405.47
2018-12-05T04:03:12.466Z,102403.22
2018-12-05T04:05:39.896Z,102405.02
2018-12-05T04:08:07.349Z,102403.19
2018-12-05T04:10:34.750Z,102403.19
2018-12-05T04:13:02.146Z,102397.34
2018-12-05T04:15:29.675Z,102396.45
2018-12-05T04:17:57.086Z,102397.80
2018-12-05T04:20:24.829Z,102395.55
2018-12-05T04:22:52.238Z,102400.01
2018-12-05T04:25:19.630Z,102403.19
2018-12-05T04:27:47.024Z,102400.94
2018-12-05T04:30:14.430Z,102397.80
2018-12-05T04:32:41.846Z,102407.69
2018-12-05T04:35:09.252Z,102388.98
2018-12-05T04:37:36.754Z,102403.67
2018-12-05T04:40:04.159Z,102404.61
2018-12-05T04:42:31.566Z,102402.81
2018-12-05T04:44:58.957Z,102396.08
2018-12-05T04:47:26.370Z,102403.27
2018-12-05T04:49:53.769Z,102400.12
2018-12-05T04:52:21.163Z,102399.70
2018-12-05T04:54:48.570Z,102400.19
2018-12-05T04:57:15.977Z,102406.48
2018-12-05T04:59:43.365Z,102407.38
2018-12-05T05:02:10.772Z,102406.06
2018-12-05T05:04:38.259Z,102415.05
2018-12-05T05:07:07.100Z,102414.19
2018-12-05T05:09:34.686Z,102410.14
2018-12-05T05:12:02.127Z,102415.09
2018-12-05T05:14:30.058Z,102416.87
2018-12-05T05:16:58.525Z,102418.80
2018-12-05T05:19:25.902Z,102422.38
2018-12-05T05:21:53.330Z,102437.91
2018-12-05T05:24:20.793Z,102436.20
2018-12-05T05:26:48.279Z,102440.75
2018-12-05T05:29:15.697Z,102441.67
2018-12-05T05:31:43.104Z,102438.12
2018-12-05T05:34:10.498Z,102431.44
2018-12-05T05:36:37.907Z,102447.10
2018-12-05T05:39:06.681Z,102439.94
2018-12-05T05:41:34.098Z,102444.83
2018-12-05T05:44:01.674Z,102451.09
2018-12-05T05:46:29.058Z,102455.56
2018-12-05T05:48:56.506Z,102462.28
2018-12-05T05:51:23.886Z,102450.67
2018-12-05T05:53:51.291Z,102454.16
2018-12-05T05:56:18.694Z,102444.41
2018-12-05T05:58:46.102Z,102446.19
2018-12-05T06:01:13.494Z,102455.13
2018-12-05T06:03:41.478Z,102445.75
2018-12-05T06:06:08.897Z,102444.86
2018-12-05T06:08:36.295Z,102447.98
2018-12-05T06:11:03.706Z,102452.02
2018-12-05T06:13:31.091Z,102461.75
2018-12-05T06:15:58.550Z,102456.66
2018-12-05T06:18:25.973Z,102459.63
2018-12-05T06:20:54.194Z,102451.95
2018-12-05T06:23:21.599Z,102450.55
2018-12-05T06:25:48.988Z,102452.70
2018-12-05T06:28:16.392Z,102436.59
2018-12-05T06:30:43.806Z,102437.62
2018-12-05T06:33:11.237Z,102443.89
2018-12-05T06:35:38.622Z,102438.82
2018-12-05T06:38:06.059Z,102439.54
2018-12-05T06:40:33.449Z,102435.41
2018-12-05T06:43:00.847Z,102440.20
2018-12-05T06:45:28.248Z,102446.89
2018-12-05T06:47:55.707Z,102440.07
2018-12-05T06:50:23.126Z,102447.59
2018-12-05T06:52:50.517Z,102446.20
2018-12-05T06:55:18.058Z,102447.95
2018-12-05T06:57:45.470Z,102454.20
2018-12-05T07:00:12.862Z,102456.91
2018-12-05T07:02:40.262Z,102454.16
2018-12-05T07:05:07.672Z,102459.97
2018-12-05T07:07:35.074Z,102461.73
2018-12-05T07:10:02.504Z,102459.49
2018-12-05T07:12:29.957Z,102458.13
2018-12-05T07:14:57.357Z,102467.97
2018-12-05T07:17:24.763Z,102465.72
2018-12-05T07:19:52.171Z,102467.04
2018-12-05T07:22:19.667Z,102462.12
2018-12-05T07:24:47.061Z,102465.27
2018-12-05T07:27:14.453Z,102467.47
2018-12-05T07:29:41.842Z,102467.88
2018-12-05T07:32:09.270Z,102471.45
2018-12-05T07:34:36.667Z,102460.22
2018-12-05T07:37:04.074Z,102464.69
2018-12-05T07:39:31.479Z,102465.10
2018-12-05T07:41:58.866Z,102466.45
2018-12-05T07:44:26.260Z,102462.80
2018-12-05T07:46:53.663Z,102454.71
2018-12-05T07:49:21.071Z,102463.70
2018-12-05T07:51:48.475Z,102459.63
2018-12-05T07:54:16.006Z,102465.44
2018-12-05T07:56:43.396Z,102469.00
2018-12-05T07:59:10.798Z,102468.10
2018-12-05T08:01:38.194Z,102473.02
2018-12-05T08:04:05.607Z,102472.56
2018-12-05T08:06:32.994Z,102462.20
2018-12-05T08:09:00.420Z,102467.56
2018-12-05T08:11:27.821Z,102471.16
2018-12-05T08:13:55.267Z,102472.02
2018-12-05T08:16:22.766Z,102473.37
2018-12-05T08:18:50.213Z,102479.20
2018-12-05T08:21:17.611Z,102479.17
2018-12-05T08:23:45.001Z,102480.97
2018-12-05T08:26:12.411Z,102488.13
2018-12-05T08:28:39.794Z,102489.45
2018-12-05T08:31:07.869Z,102488.10
2018-12-05T08:33:35.272Z,102484.89
2018-12-05T08:36:02.662Z,102490.25
2018-12-05T08:38:30.058Z,102484.41
2018-12-05T08:40:57.497Z,102484.37
2018-12-05T08:43:25.022Z,102483.92
2018-12-05T08:45:52.444Z,102486.65
2018-12-05T08:48:19.829Z,102486.65
2018-12-05T08:50:47.310Z,102485.27
2018-12-05T08:53:14.702Z,102484.82
2018-12-05T08:55:42.095Z,102485.27
2018-12-05T08:58:09.498Z,102485.72
2018-12-05T09:00:36.899Z,102487.97
2018-12-05T09:03:04.298Z,102484.85
2018-12-05T09:05:38.142Z,102487.10
2018-12-05T09:08:05.542Z,102491.59
2018-12-05T09:10:33.017Z,102492.05
2018-12-05T09:13:01.613Z,102496.98
2018-12-05T09:15:29.010Z,102490.25
2018-12-05T09:17:56.424Z,102491.18
2018-12-05T09:20:23.946Z,102492.05
2018-12-05T09:22:51.455Z,102483.53
2018-12-05T09:25:18.849Z,102476.80
2018-12-05T09:27:46.304Z,102485.78
2018-12-05T09:30:13.711Z,102482.22
2018-12-05T09:32:41.114Z,102483.13
2018-12-05T09:35:08.517Z,102484.05
2018-12-05T09:37:35.922Z,102486.30
2018-12-05T09:40:03.442Z,102493.05
2018-12-05T09:42:30.846Z,102491.25
2018-12-05T09:44:58.259Z,102487.65
2018-12-05T09:47:25.666Z,102484.95
2018-12-05T09:49:53.158Z,102481.81
2018-12-05T09:52:20.555Z,102484.09
2018-12-05T09:54:47.946Z,102484.95
2018-12-05T09:57:15.453Z,102490.80
2018-12-05T09:59:42.866Z,102486.30
2018-12-05T10:02:10.282Z,102487.62
2018-12-05T10:04:38.881Z,102486.69
2018-12-05T10:07:06.325Z,102485.75
2018-12-05T10:09:33.738Z,102477.63
2018-12-05T10:12:01.140Z,102480.77
2018-12-05T10:14:28.538Z,102463.23
2018-12-05T10:16:55.934Z,102462.75
2018-12-05T10:19:23.347Z,102455.12
2018-12-05T10:21:50.751Z,102463.66
2018-12-05T10:24:18.240Z,102460.95
2018-12-05T10:26:45.654Z,102455.98
2018-12-05T10:29:13.050Z,102457.33
2018-12-05T10:31:47.101Z,102449.23
2018-12-05T10:34:14.495Z,102447.89
2018-12-05T10:36:41.892Z,102442.48
2018-12-05T10:39:09.301Z,102445.67
2018-12-05T10:41:36.758Z,102441.62
2018-12-05T10:44:04.167Z,102442.08
2018-12-05T10:46:31.573Z,102440.28
2018-12-05T10:48:58.970Z,102440.28
2018-12-05T10:51:26.390Z,102445.22
2018-12-05T10:53:53.781Z,102445.26
2018-12-05T10:56:21.191Z,102442.56
2018-12-05T10:58:48.602Z,102443.91
2018-12-05T11:01:21.401Z,102438.06
2018-12-05T11:03:48.842Z,102430.88
2018-12-05T11:06:25.387Z,102425.48
2018-12-05T11:10:00.114Z,102427.31
2018-12-05T11:12:33.166Z,102419.70
2018-12-05T11:15:06.167Z,102418.36
2018-12-05T11:17:39.138Z,102415.22
2018-12-05T11:20:12.131Z,102417.02
2018-12-05T11:22:45.143Z,102412.97
2018-12-05T11:25:16.308Z,102411.17
2018-12-05T11:27:43.714Z,102405.33
2018-12-05T11:30:11.111Z,102403.08
2018-12-05T11:32:38.510Z,102399.94
2018-12-05T11:35:05.917Z,102401.70
2018-12-05T11:37:33.311Z,102397.65
2018-12-05T11:40:00.694Z,102394.47
2018-12-05T11:42:28.139Z,102393.52
2018-12-05T11:44:55.563Z,102386.74
2018-12-05T11:47:22.943Z,102382.70
2018-12-05T11:49:50.330Z,102380.91
2018-12-05T11:52:17.748Z,102383.19
2018-12-05T11:54:45.142Z,102371.95
2018-12-05T11:57:13.197Z,102374.64
2018-12-05T11:59:40.586Z,102371.54
2018-12-05T12:02:08.000Z,102363.90
2018-12-05T12:04:35.398Z,102363.04
2018-12-05T12:07:02.797Z,102363.08
2018-12-05T12:09:30.208Z,102365.29
2018-12-05T12:11:57.636Z,102364.42
2018-12-05T12:14:25.022Z,102359.93
2018-12-05T12:16:52.428Z,102354.09
2018-12-05T12:19:19.836Z,102354.98
2018-12-05T12:21:47.231Z,102353.19
2018-12-05T12:24:16.585Z,102344.69
2018-12-05T12:26:43.986Z,102342.48
2018-12-05T12:29:11.395Z,102339.75
2018-12-05T12:31:38.824Z,102333.05
2018-12-05T12:34:06.267Z,102334.84
2018-12-05T12:36:33.655Z,102326.79
2018-12-05T12:39:01.048Z,102329.94
2018-12-05T12:41:28.451Z,102326.34
2018-12-05T12:43:55.885Z,102325.44
2018-12-05T12:46:23.285Z,102322.30
2018-12-05T12:48:50.686Z,102329.08
2018-12-05T12:51:18.164Z,102328.09
2018-12-05T12:53:45.614Z,102321.31
2018-12-05T12:56:13.031Z,102320.46
2018-12-05T12:58:40.421Z,102326.67
2018-12-05T13:01:07.931Z,102320.79
2018-12-05T13:03:35.334Z,102322.63
2018-12-05T13:06:02.732Z,102318.58
2018-12-05T13:08:30.151Z,102311.87
2018-12-05T13:10:57.559Z,102309.95
2018-12-05T13:13:25.043Z,102304.11
2018-12-05T13:15:52.438Z,102297.78
2018-12-05T13:18:19.906Z,102295.53
2018-12-05T13:20:47.285Z,102285.64
2018-12-05T13:23:14.692Z,102284.25
2018-12-05T13:25:42.089Z,102277.45
2018-12-05T13:28:09.506Z,102286.41
2018-12-05T13:30:36.961Z,102281.46
2018-12-05T13:33:04.347Z,102274.72
2018-12-05T13:35:31.749Z,102273.33
2018-12-05T13:37:59.145Z,102265.28
2018-12-05T13:40:26.547Z,102263.48
2018-12-05T13:42:53.970Z,102258.53
2018-12-05T13:45:21.374Z,102258.08
2018-12-05T13:47:48.794Z,102251.79
2018-12-05T13:50:16.199Z,102248.20
2018-12-05T13:52:43.594Z,102240.10
2018-12-05T13:55:11.038Z,102236.51
2018-12-05T13:57:38.511Z,102237.90
2018-12-05T14:00:06.119Z,102243.73
2018-12-05T14:02:33.533Z,102244.64
2018-12-05T14:05:00.960Z,102248.24
2018-12-05T14:07:28.367Z,102240.19
2018-12-05T14:09:55.794Z,102235.25
2018-12-05T14:12:27.110Z,102220.41
2018-12-05T14:14:54.719Z,102221.81
2018-12-05T14:17:22.227Z,102213.72
2018-12-05T14:19:49.651Z,102220.91
2018-12-05T14:22:17.068Z,102206.53
2018-12-05T14:24:44.535Z,102213.27
2018-12-05T14:27:11.927Z,102204.28
2018-12-05T14:29:39.447Z,102202.03
2018-12-05T14:32:06.902Z,102191.70
2018-12-05T14:34:34.346Z,102189.94
2018-12-05T14:37:01.830Z,102189.94
2018-12-05T14:39:29.307Z,102192.19
2018-12-05T14:41:56.702Z,102196.28
2018-12-05T14:44:24.109Z,102193.54
2018-12-05T14:46:51.542Z,102198.89
2018-12-05T14:49:18.935Z,102189.44
2018-12-05T14:51:46.343Z,102192.05
2018-12-05T14:54:13.796Z,102192.90
2018-12-05T14:56:41.261Z,102183.91
2018-12-05T14:59:08.675Z,102179.41
2018-12-05T15:01:36.067Z,102174.41
2018-12-05T15:04:03.453Z,102178.41
2018-12-05T15:06:30.878Z,102174.37
2018-12-05T15:08:58.268Z,102177.11
2018-12-05T15:11:25.684Z,102173.52
2018-12-05T15:13:53.098Z,102172.66
2018-12-05T15:16:20.539Z,102174.42
2018-12-05T15:18:47.959Z,102170.83
2018-12-05T15:21:15.345Z,102174.02
2018-12-05T15:23:42.751Z,102170.91
2018-12-05T15:26:10.203Z,102168.21
2018-12-05T15:28:37.599Z,102154.28
2018-12-05T15:31:05.018Z,102157.44
2018-12-05T15:33:32.421Z,102160.17
2018-12-05T15:35:59.940Z,102158.83
2018-12-05T15:38:27.331Z,102144.45
2018-12-05T15:40:54.721Z,102149.39
2018-12-05T15:43:22.128Z,102147.19
2018-12-05T15:45:49.517Z,102139.11
2018-12-05T15:48:16.926Z,102144.50
2018-12-05T15:50:44.319Z,102138.25
2018-12-05T15:53:11.719Z,102133.35
2018-12-05T15:55:39.111Z,102124.81
2018-12-05T15:58:06.512Z,102124.41
2018-12-05T16:00:33.905Z,102122.62
2018-12-05T16:03:01.289Z,102108.69
2018-12-05T16:05:28.691Z,102101.09
2018-12-05T16:07:56.098Z,102104.25
2018-12-05T16:10:23.505Z,102098.85
2018-12-05T16:12:50.929Z,102090.36
2018-12-05T16:15:18.325Z,102089.41
2018-12-05T16:17:45.719Z,102078.13
2018-12-05T16:20:13.127Z,102073.58
2018-12-05T16:22:40.518Z,102076.67
2018-12-05T16:25:07.917Z,102067.64
2018-12-05T16:27:35.338Z,102062.23
2018-12-05T16:30:02.731Z,102062.62
2018-12-05T16:32:30.119Z,102055.00
2018-12-05T16:34:57.498Z,102042.84
2018-12-05T16:37:24.890Z,102039.66
2018-12-05T16:39:52.307Z,102039.66
2018-12-05T16:42:19.706Z,102032.91
2018-12-05T16:44:47.238Z,102031.12
2018-12-05T16:47:14.634Z,102022.62
2018-12-05T16:49:42.651Z,102018.98
2018-12-05T16:52:10.396Z,102014.94
2018-12-05T16:54:38.067Z,102013.17
2018-12-05T16:57:05.462Z,102009.59
2018-12-05T16:59:32.846Z,102007.34
2018-12-05T17:02:00.269Z,102007.80
2018-12-05T17:04:27.662Z,102003.80
2018-12-05T17:06:55.075Z,101984.08
2018-12-05T17:09:25.999Z,101986.79
2018-12-05T17:11:52.021Z,101984.59
2018-12-05T17:14:19.426Z,101984.64
2018-12-05T17:16:46.850Z,101983.70
2018-12-05T17:19:14.293Z,101979.26
2018-12-05T17:21:41.714Z,101975.26
2018-12-05T17:24:09.163Z,101969.86
2018-12-05T17:26:36.566Z,101969.02
2018-12-05T17:29:04.520Z,101966.32
2018-12-05T17:31:32.044Z,101970.77
2018-12-05T17:33:59.481Z,101967.67
2018-12-05T17:36:26.918Z,101958.64
2018-12-05T17:38:54.330Z,101953.75
2018-12-05T17:41:21.748Z,101947.01
2018-12-05T17:43:49.547Z,101951.06
2018-12-05T17:46:16.955Z,101944.32
2018-12-05T17:48:44.390Z,101933.12
2018-12-05T17:51:11.803Z,101926.80
2018-12-05T17:53:39.210Z,101924.54
2018-12-05T17:56:06.633Z,101919.98
2018-12-05T17:58:34.018Z,101923.52
2018-12-05T18:01:01.450Z,101923.02
2018-12-05T18:03:35.448Z,101922.55
2018-12-05T18:06:03.539Z,101914.92
2018-12-05T18:08:31.365Z,101908.13
2018-12-05T18:10:59.204Z,101896.00
2018-12-05T18:13:27.453Z,101896.05
2018-12-05T18:15:55.595Z,101893.41
2018-12-05T18:18:27.844Z,101897.47
2018-12-05T18:20:56.351Z,101892.50
2018-12-05T18:23:25.088Z,101897.33
2018-12-05T18:25:52.825Z,101894.13
2018-12-05T18:28:20.274Z,101894.20
2018-12-05T18:30:47.689Z,101888.30
2018-12-05T18:33:15.146Z,101880.32
2018-12-05T18:35:42.681Z,101875.75
2018-12-05T18:38:10.121Z,101871.73
2018-12-05T18:40:37.651Z,101876.66
2018-12-05T18:43:05.153Z,101869.91
2018-12-05T18:45:32.543Z,101870.77
2018-12-05T18:48:04.940Z,101870.37
2018-12-05T18:50:33.336Z,101868.56
2018-12-05T18:53:02.001Z,101863.17
2018-12-05T18:55:32.478Z,101861.84
2018-12-05T18:58:02.175Z,101852.46
2018-12-05T19:00:29.735Z,101857.01
2018-12-05T19:02:57.674Z,101857.92
2018-12-05T19:05:25.589Z,101853.87
2018-12-05T19:07:57.686Z,101850.28
2018-12-05T19:10:25.962Z,101846.23
2018-12-05T19:12:54.300Z,101831.45
2018-12-05T19:15:22.353Z,101824.33
2018-12-05T19:17:50.128Z,101825.17
2018-12-05T19:20:18.085Z,101815.73
2018-12-05T19:22:47.446Z,101816.67
2018-12-05T19:25:15.566Z,101807.26
2018-12-05T19:27:44.244Z,101805.26
2018-12-05T19:30:12.533Z,101800.31
2018-12-05T19:32:40.346Z,101793.50
2018-12-05T19:35:07.876Z,101785.80
2018-12-05T19:37:36.056Z,101778.56
2018-12-05T19:40:07.431Z,101771.77
2018-12-05T19:42:35.958Z,101770.41
2018-12-05T19:45:04.065Z,101764.58
2018-12-05T19:47:32.828Z,101758.72
2018-12-05T19:50:01.381Z,101763.20
2018-12-05T19:52:28.850Z,101757.81
2018-12-05T19:54:57.423Z,101759.16
2018-12-05T19:57:25.767Z,101754.23
2018-12-05T19:59:54.279Z,101760.08
2018-12-05T20:02:22.599Z,101757.38
2018-12-05T20:04:51.473Z,101758.72
2018-12-05T20:07:20.170Z,101752.44
2018-12-05T20:09:47.734Z,101752.03
2018-12-05T20:12:15.171Z,101752.03
2018-12-05T20:14:42.564Z,101744.41
2018-12-05T20:17:09.958Z,101746.20
2018-12-05T20:19:37.414Z,101745.77
2018-12-05T20:22:04.839Z,101736.82
2018-12-05T20:24:32.239Z,101726.51
2018-12-05T20:26:59.648Z,101720.72
2018-12-05T20:29:27.828Z,101720.28
2018-12-05T20:31:56.274Z,101718.03
2018-12-05T20:34:23.775Z,101726.58
2018-12-05T20:36:52.117Z,101712.70
2018-12-05T20:39:25.915Z,101718.11
2018-12-05T20:41:49.109Z,101710.07
2018-12-05T20:44:17.057Z,101708.28
2018-12-05T20:46:44.662Z,101707.44
2018-12-05T20:49:12.777Z,101708.34
2018-12-05T20:51:42.389Z,101708.80
2018-12-05T20:54:09.821Z,101703.91
2018-12-05T20:56:40.052Z,101699.88
2018-12-05T20:59:07.679Z,101688.20
2018-12-05T21:01:35.978Z,101689.09
2018-12-05T21:04:04.268Z,101682.75
2018-12-05T21:06:31.874Z,101679.55
2018-12-05T21:08:59.287Z,101677.73
2018-12-05T21:11:26.718Z,101674.47
2018-12-05T21:13:54.166Z,101660.08
2018-12-05T21:16:22.902Z,101666.36
2018-12-05T21:18:50.296Z,101660.06
2018-12-05T21:21:17.698Z,101657.77
2018-12-05T21:23:45.109Z,101657.24
2018-12-05T21:27:36.966Z,101649.01
2018-12-05T21:30:04.928Z,101648.17
2018-12-05T21:32:32.363Z,101645.55
2018-12-05T21:35:04.412Z,101642.03
2018-12-05T21:37:31.779Z,101641.21
2018-12-05T21:39:59.197Z,101638.90
2018-12-05T21:45:00.365Z,101646.66
2018-12-05T21:47:27.845Z,101649.30
2018-12-05T21:49:55.345Z,101649.80
2018-12-05T21:52:22.767Z,101648.00
2018-12-05T21:54:50.174Z,101654.76
2018-12-05T21:57:17.587Z,101648.91
2018-12-05T21:59:45.004Z,101645.85
2018-12-05T22:02:12.536Z,101655.77
2018-12-05T22:04:40.096Z,101654.88
2018-12-05T22:07:07.595Z,101656.16
2018-12-05T22:09:34.992Z,101652.05
2018-12-05T22:12:02.390Z,101646.15
2018-12-05T22:14:29.786Z,101648.45
2018-12-05T22:16:57.215Z,101641.72
2018-12-05T22:19:25.667Z,101634.55
2018-12-05T22:21:53.106Z,101629.16
2018-12-05T22:24:21.102Z,101634.52
2018-12-05T22:26:49.458Z,101628.62
2018-12-05T22:29:17.232Z,101624.44
2018-12-05T22:31:44.932Z,101614.92
2018-12-05T22:34:12.593Z,101616.75
2018-12-05T22:36:40.259Z,101614.80
2018-12-05T22:39:08.540Z,101608.52
2018-12-05T22:41:36.111Z,101570.44
2018-12-05T22:44:03.806Z,101599.73
2018-12-05T22:46:32.231Z,101595.69
2018-12-05T22:49:00.378Z,101594.78
2018-12-05T22:51:27.989Z,101590.38
2018-12-05T22:53:56.056Z,101592.92
2018-12-05T22:56:24.886Z,101584.89
2018-12-05T22:58:54.042Z,101584.91
2018-12-05T23:01:21.695Z,101574.12
2018-12-05T23:03:49.199Z,101565.14
2018-12-05T23:06:16.691Z,101563.85
2018-12-05T23:08:44.414Z,101561.16
2018-12-05T23:11:12.107Z,101551.27
2018-12-05T23:13:39.736Z,101543.56
2018-12-05T23:16:07.149Z,101537.28
2018-12-05T23:18:34.633Z,101523.73
2018-12-05T23:21:02.093Z,101525.52
2018-12-05T23:23:29.860Z,101524.15
2018-12-05T23:25:57.440Z,101521.48
2018-12-05T23:28:25.118Z,101522.83
2018-12-05T23:30:52.489Z,101515.20
2018-12-05T23:33:19.902Z,101508.52
2018-12-05T23:35:47.294Z,101513.83
2018-12-05T23:38:14.716Z,101500.42
2018-12-05T23:41:52.562Z,101496.89
2018-12-05T23:44:25.264Z,101485.22
2018-12-05T23:46:52.674Z,101473.48
2018-12-05T23:49:20.128Z,101469.05
2018-12-05T23:51:47.530Z,101465.92
2018-12-05T23:54:14.932Z,101463.22
2018-12-05T23:56:42.362Z,101461.42
2018-12-05T23:59:09.758Z,101465.00
